createdAt,value
2022-08-07T00:02:44.836Z,2.7
2022-08-07T00:07:44.626Z,2.6
2022-08-07T00:12:57.671Z,2.8
2022-08-07T00:17:44.433Z,1.8
2022-08-07T00:22:51.634Z,2.3
2022-08-07T00:27:53.683Z,2.5
2022-08-07T00:32:43.969Z,2.4
2022-08-07T00:42:43.694Z,2.2
2022-08-07T00:48:08.104Z,3.0
2022-08-07T00:52:43.517Z,2.4
2022-08-07T00:57:55.307Z,2.5
2022-08-07T01:02:43.133Z,2.4
2022-08-07T01:07:42.941Z,2.0
2022-08-07T01:12:53.918Z,2.4
2022-08-07T01:17:42.569Z,2.1
2022-08-07T01:22:46.644Z,2.0
2022-08-07T01:27:51.118Z,1.8
2022-08-07T01:32:42.065Z,2.1
2022-08-07T01:37:41.849Z,1.8
2022-08-07T01:42:58.485Z,1.7
2022-08-07T01:48:18.623Z,2.0
2022-08-07T01:52:54.014Z,1.8
2022-08-07T01:58:01.408Z,1.6
2022-08-07T02:03:12.550Z,1.3
2022-08-07T02:07:50.030Z,1.8
2022-08-07T02:12:40.465Z,1.6
2022-08-07T02:17:40.271Z,1.4
2022-08-07T02:22:41.323Z,1.9
2022-08-07T02:27:41.212Z,1.5
2022-08-07T02:37:43.920Z,1.7
2022-08-07T02:42:39.084Z,1.3
2022-08-07T02:47:45.412Z,1.8
2022-08-07T02:52:38.608Z,1.5
2022-08-07T02:57:38.374Z,1.6
2022-08-07T03:02:38.067Z,1.7
2022-08-07T03:08:04.876Z,1.5
2022-08-07T03:12:37.526Z,1.3
2022-08-07T03:17:52.826Z,1.4
2022-08-07T03:22:37.012Z,1.5
2022-08-07T03:27:59.697Z,1.2
2022-08-07T03:32:36.520Z,1.3
2022-08-07T03:37:37.397Z,1.4
2022-08-07T03:42:35.977Z,1.3
2022-08-07T03:47:47.956Z,1.6
2022-08-07T03:52:35.433Z,1.1
2022-08-07T03:58:35.204Z,1.2
2022-08-07T04:02:34.895Z,1.3
2022-08-07T04:22:33.748Z,1.1
2022-08-07T04:27:35.507Z,0.9
2022-08-07T04:32:34.359Z,1.1
2022-08-07T04:37:40.481Z,1.3
2022-08-07T04:42:32.562Z,1.1
2022-08-07T04:52:32.071Z,1.6
2022-08-07T04:58:16.317Z,1.1
2022-08-07T05:02:31.369Z,1.3
2022-08-07T05:12:30.803Z,1.2
2022-08-07T05:17:51.598Z,0.9
2022-08-07T05:22:30.092Z,1.5
2022-08-07T05:28:03.370Z,1.0
2022-08-07T05:32:29.468Z,1.3
2022-08-07T05:37:29.331Z,1.1
2022-08-07T05:42:33.353Z,1.0
2022-08-07T05:47:38.371Z,0.9
2022-08-07T05:52:30.035Z,1.2
2022-08-07T05:57:30.173Z,1.0
2022-08-07T06:02:28.719Z,1.3
2022-08-07T06:08:14.461Z,1.1
2022-08-07T06:12:31.820Z,0.9
2022-08-07T06:17:31.908Z,1.0
2022-08-07T06:22:27.114Z,0.8
2022-08-07T06:28:00.335Z,1.1
2022-08-07T06:32:26.119Z,0.8
2022-08-07T06:37:25.815Z,1.0
2022-08-07T06:42:33.180Z,0.9
2022-08-07T06:47:27.057Z,0.7
2022-08-07T06:52:31.824Z,0.8
2022-08-07T07:02:54.569Z,0.9
2022-08-07T07:12:30.762Z,0.7
2022-08-07T07:17:23.843Z,1.0
2022-08-07T07:22:35.837Z,0.8
2022-08-07T07:27:23.542Z,0.9
2022-08-07T07:32:23.435Z,0.8
2022-08-07T07:42:32.570Z,0.7
2022-08-07T07:47:24.040Z,0.8
2022-08-07T07:52:23.533Z,0.7
2022-08-07T07:57:50.399Z,0.6
2022-08-07T08:02:35.197Z,0.7
2022-08-07T08:07:22.850Z,0.5
2022-08-07T08:17:57.399Z,0.7
2022-08-07T08:22:22.844Z,0.6
2022-08-07T08:27:22.904Z,0.4
2022-08-07T08:32:25.315Z,0.6
2022-08-07T08:42:22.983Z,0.7
2022-08-07T08:47:25.113Z,0.4
2022-08-07T08:57:23.159Z,0.5
2022-08-07T09:02:34.512Z,0.6
2022-08-07T09:12:31.312Z,0.5
2022-08-07T09:24:28.851Z,0.7
2022-08-07T09:32:26.301Z,0.8
2022-08-07T09:37:48.594Z,0.6
2022-08-07T10:07:31.472Z,0.5
2022-08-07T10:12:26.556Z,0.6
2022-08-07T10:17:28.991Z,0.5
2022-08-07T10:22:33.610Z,0.7
2022-08-07T10:27:27.114Z,0.8
2022-08-07T10:32:36.993Z,0.9
2022-08-07T10:37:48.690Z,0.7
2022-08-07T10:42:31.091Z,0.6
2022-08-07T10:47:50.587Z,0.5
2022-08-07T10:52:31.814Z,0.7
2022-08-07T10:57:34.448Z,0.5
2022-08-07T11:02:33.086Z,0.8
2022-08-07T11:07:59.007Z,0.6
2022-08-07T11:22:37.232Z,0.5
2022-08-07T11:32:31.753Z,0.7
2022-08-07T11:37:38.724Z,0.6
2022-08-07T11:42:32.726Z,0.5
2022-08-07T11:47:38.667Z,0.6
2022-08-07T11:52:35.671Z,0.5
2022-08-07T11:58:00.226Z,0.4
2022-08-07T12:07:38.923Z,0.5
2022-08-07T12:12:36.023Z,0.6
2022-08-07T12:17:36.985Z,0.5
2022-08-07T12:22:47.231Z,0.7
2022-08-07T12:28:03.993Z,0.5
2022-08-07T12:32:38.599Z,0.6
2022-08-07T12:38:09.643Z,0.5
2022-08-07T12:47:40.757Z,0.4
2022-08-07T12:58:00.437Z,0.5
2022-08-07T13:02:42.851Z,0.6
2022-08-07T13:08:13.348Z,0.5
2022-08-07T13:17:45.518Z,0.4
2022-08-07T13:22:52.571Z,0.3
2022-08-07T13:28:12.707Z,0.4
2022-08-07T13:32:47.847Z,0.5
2022-08-07T13:48:07.999Z,0.3
2022-08-07T14:02:54.335Z,0.7
2022-08-07T14:08:01.005Z,0.5
2022-08-07T14:12:55.505Z,0.6
2022-08-07T14:18:24.531Z,0.4
2022-08-07T14:22:57.140Z,0.5
2022-08-07T14:28:10.505Z,0.4
2022-08-07T14:32:58.797Z,0.5
2022-08-07T14:43:57.212Z,0.4
2022-08-07T14:48:01.597Z,0.8
2022-08-07T14:53:07.805Z,0.5
2022-08-07T14:58:03.752Z,0.4
2022-08-07T15:03:18.629Z,0.5
2022-08-07T15:05:19.760Z,0.5
2022-08-07T15:20:32.723Z,0.4
2022-08-07T15:30:16.458Z,0.6
2022-08-07T15:35:15.007Z,0.5
2022-08-07T15:40:20.533Z,0.7
2022-08-07T15:45:19.327Z,0.6
2022-08-07T16:05:20.001Z,0.8
2022-08-07T16:15:55.067Z,0.7
2022-08-07T16:25:23.369Z,0.4
2022-08-07T16:30:30.864Z,0.6
2022-08-07T16:35:58.350Z,0.9
2022-08-07T16:40:28.842Z,1.0
2022-08-07T16:46:40.304Z,0.8
2022-08-07T16:50:35.616Z,0.6
2022-08-07T16:55:26.275Z,0.9
2022-08-07T17:00:30.174Z,0.7
2022-08-07T17:06:19.541Z,0.6
2022-08-07T17:10:33.084Z,0.7
2022-08-07T17:15:44.231Z,0.6
2022-08-07T17:20:29.923Z,0.9
2022-08-07T17:25:47.792Z,0.6
2022-08-07T17:30:30.990Z,0.7
2022-08-07T17:35:50.839Z,0.8
2022-08-07T17:40:31.476Z,0.7
2022-08-07T17:50:32.543Z,0.8
2022-08-07T17:55:54.877Z,1.0
2022-08-07T18:00:49.124Z,0.7
2022-08-07T18:06:03.290Z,0.6
2022-08-07T18:10:34.794Z,1.6
2022-08-07T18:15:35.316Z,0.7
2022-08-07T18:25:40.835Z,0.6
2022-08-07T18:30:37.151Z,0.8
2022-08-07T18:35:50.246Z,0.9
2022-08-07T18:45:44.695Z,0.8
2022-08-07T18:50:45.933Z,0.7
2022-08-07T18:55:42.946Z,0.6
2022-08-07T19:00:39.728Z,0.5
2022-08-07T19:10:51.944Z,0.8
2022-08-07T19:21:09.299Z,0.6
2022-08-07T19:26:24.929Z,1.1
2022-08-07T19:35:42.922Z,1.0
2022-08-07T19:40:49.478Z,0.8
2022-08-07T19:46:05.029Z,0.7
2022-08-07T19:50:47.772Z,0.6
2022-08-07T19:55:56.408Z,1.0
2022-08-07T20:00:55.464Z,0.8
2022-08-07T20:05:59.859Z,1.1
2022-08-07T20:15:45.904Z,1.5
2022-08-07T20:20:46.218Z,1.2
2022-08-07T20:30:47.007Z,1.3
2022-08-07T20:35:54.437Z,1.1
2022-08-07T20:40:51.508Z,0.8
2022-08-07T20:46:25.958Z,0.9
2022-08-07T20:50:47.901Z,0.8
2022-08-07T20:55:48.158Z,0.7
2022-08-07T21:05:54.529Z,1.0
2022-08-07T21:10:48.878Z,0.6
2022-08-07T21:15:59.659Z,0.7
2022-08-07T21:25:56.579Z,0.9
2022-08-07T21:30:49.575Z,0.7
2022-08-07T21:36:05.047Z,0.9
2022-08-07T21:40:50.082Z,1.0
2022-08-07T21:46:09.580Z,0.6
2022-08-07T21:50:50.220Z,0.8
2022-08-07T21:55:50.372Z,0.9
2022-08-07T22:00:50.507Z,0.7
2022-08-07T22:05:50.623Z,0.8
2022-08-07T22:16:43.460Z,1.1
2022-08-07T22:20:51.005Z,0.8
2022-08-07T22:25:50.987Z,0.7
2022-08-07T22:30:52.797Z,0.8
2022-08-07T22:40:51.323Z,1.0
2022-08-07T22:46:04.754Z,0.8
2022-08-07T23:00:51.510Z,1.2
2022-08-07T23:06:08.270Z,0.9
2022-08-07T23:10:51.640Z,1.0
2022-08-07T23:31:06.926Z,0.7
2022-08-07T23:35:51.870Z,1.0
2022-08-07T23:40:51.952Z,1.2
2022-08-07T23:46:02.604Z,0.9
2022-08-07T23:50:54.458Z,1.1
2022-08-07T23:55:55.473Z,1.2
